sensor_id;sensor_type;location;lat;lon;timestamp;noise_LAeq;noise_LA_min;noise_LA_max;noise_LA01;noise_LA95
72686;Laerm;61365;52.162;4.500;2023-04-15T00:00:21;46.56;41.14;50.92;;
72686;Laerm;61365;52.162;4.500;2023-04-15T00:02:47;46.40;41.60;50.87;;
72686;Laerm;61365;52.162;4.500;2023-04-15T00:05:13;46.22;41.18;50.99;;
72686;Laerm;61365;52.162;4.500;2023-04-15T00:07:39;46.40;41.42;51.06;;
72686;Laerm;61365;52.162;4.500;2023-04-15T00:10:06;46.42;41.51;50.91;;
72686;Laerm;61365;52.162;4.500;2023-04-15T00:12:33;46.46;41.27;50.77;;
72686;Laerm;61365;52.162;4.500;2023-04-15T00:14:59;46.38;40.59;50.95;;
72686;Laerm;61365;52.162;4.500;2023-04-15T00:17:25;46.43;40.79;51.69;;
72686;Laerm;61365;52.162;4.500;2023-04-15T00:19:51;46.19;41.71;51.16;;
72686;Laerm;61365;52.162;4.500;2023-04-15T00:22:17;46.34;40.48;50.98;;
72686;Laerm;61365;52.162;4.500;2023-04-15T00:24:43;46.29;40.33;51.35;;
72686;Laerm;61365;52.162;4.500;2023-04-15T00:27:09;46.37;40.58;54.39;;
72686;Laerm;61365;52.162;4.500;2023-04-15T00:29:36;46.37;41.57;51.10;;
72686;Laerm;61365;52.162;4.500;2023-04-15T00:32:02;46.31;41.13;50.55;;
72686;Laerm;61365;52.162;4.500;2023-04-15T00:34:28;46.48;40.78;51.17;;
72686;Laerm;61365;52.162;4.500;2023-04-15T00:36:54;46.50;40.17;51.89;;
72686;Laerm;61365;52.162;4.500;2023-04-15T00:39:21;46.55;41.41;51.21;;
72686;Laerm;61365;52.162;4.500;2023-04-15T00:41:48;46.50;41.21;54.63;;
72686;Laerm;61365;52.162;4.500;2023-04-15T00:44:14;46.27;41.59;53.91;;
72686;Laerm;61365;52.162;4.500;2023-04-15T00:46:41;46.37;41.72;51.19;;
72686;Laerm;61365;52.162;4.500;2023-04-15T00:49:10;46.49;40.30;54.11;;
72686;Laerm;61365;52.162;4.500;2023-04-15T00:51:37;46.45;41.89;50.84;;
72686;Laerm;61365;52.162;4.500;2023-04-15T00:54:04;46.40;40.59;51.11;;
72686;Laerm;61365;52.162;4.500;2023-04-15T00:56:34;46.47;41.48;50.80;;
72686;Laerm;61365;52.162;4.500;2023-04-15T00:59:02;46.62;41.39;54.40;;
72686;Laerm;61365;52.162;4.500;2023-04-15T01:01:28;46.69;41.88;51.20;;
72686;Laerm;61365;52.162;4.500;2023-04-15T01:03:56;46.60;41.97;51.36;;
72686;Laerm;61365;52.162;4.500;2023-04-15T01:06:24;46.66;41.20;51.17;;
72686;Laerm;61365;52.162;4.500;2023-04-15T01:08:53;46.74;40.28;51.80;;
72686;Laerm;61365;52.162;4.500;2023-04-15T01:11:19;46.63;41.54;51.71;;
72686;Laerm;61365;52.162;4.500;2023-04-15T01:13:46;46.48;41.30;51.15;;
72686;Laerm;61365;52.162;4.500;2023-04-15T01:16:13;46.26;41.88;50.53;;
72686;Laerm;61365;52.162;4.500;2023-04-15T01:18:40;46.58;41.68;51.41;;
72686;Laerm;61365;52.162;4.500;2023-04-15T01:21:06;46.45;41.29;51.57;;
72686;Laerm;61365;52.162;4.500;2023-04-15T01:23:35;46.54;41.20;52.16;;
72686;Laerm;61365;52.162;4.500;2023-04-15T01:26:05;46.69;41.80;51.37;;
72686;Laerm;61365;52.162;4.500;2023-04-15T01:28:34;46.62;41.77;51.34;;
72686;Laerm;61365;52.162;4.500;2023-04-15T01:33:34;46.57;41.57;51.35;;
72686;Laerm;61365;52.162;4.500;2023-04-15T01:36:00;46.64;41.40;51.36;;
72686;Laerm;61365;52.162;4.500;2023-04-15T01:38:26;46.48;41.38;51.03;;
72686;Laerm;61365;52.162;4.500;2023-04-15T01:40:53;46.59;41.66;55.01;;
72686;Laerm;61365;52.162;4.500;2023-04-15T01:43:19;46.66;41.45;51.49;;
72686;Laerm;61365;52.162;4.500;2023-04-15T01:45:45;46.73;40.92;51.06;;
72686;Laerm;61365;52.162;4.500;2023-04-15T01:48:11;46.43;41.66;51.17;;
72686;Laerm;61365;52.162;4.500;2023-04-15T01:50:38;46.68;41.38;51.85;;
72686;Laerm;61365;52.162;4.500;2023-04-15T01:53:04;46.49;41.43;51.37;;
72686;Laerm;61365;52.162;4.500;2023-04-15T01:55:30;46.67;39.83;54.17;;
72686;Laerm;61365;52.162;4.500;2023-04-15T01:57:57;46.65;41.47;51.28;;
72686;Laerm;61365;52.162;4.500;2023-04-15T02:00:23;46.66;41.05;51.53;;
72686;Laerm;61365;52.162;4.500;2023-04-15T02:02:49;46.49;41.89;51.45;;
72686;Laerm;61365;52.162;4.500;2023-04-15T02:05:16;46.43;41.36;51.62;;
72686;Laerm;61365;52.162;4.500;2023-04-15T02:07:42;46.59;41.03;51.56;;
72686;Laerm;61365;52.162;4.500;2023-04-15T02:10:10;46.55;41.63;51.25;;
72686;Laerm;61365;52.162;4.500;2023-04-15T02:12:38;46.63;41.85;51.86;;
72686;Laerm;61365;52.162;4.500;2023-04-15T02:15:05;46.67;41.81;51.21;;
72686;Laerm;61365;52.162;4.500;2023-04-15T02:17:35;46.65;41.57;51.98;;
72686;Laerm;61365;52.162;4.500;2023-04-15T02:20:03;46.77;41.34;51.28;;
72686;Laerm;61365;52.162;4.500;2023-04-15T02:22:33;46.64;40.96;51.12;;
72686;Laerm;61365;52.162;4.500;2023-04-15T02:24:59;46.77;41.58;51.63;;
72686;Laerm;61365;52.162;4.500;2023-04-15T02:27:26;46.47;41.15;51.51;;
72686;Laerm;61365;52.162;4.500;2023-04-15T02:29:53;46.82;41.13;51.10;;
72686;Laerm;61365;52.162;4.500;2023-04-15T02:32:19;46.62;41.39;53.84;;
72686;Laerm;61365;52.162;4.500;2023-04-15T02:34:47;46.55;41.97;51.53;;
72686;Laerm;61365;52.162;4.500;2023-04-15T02:37:14;46.48;41.42;51.13;;
72686;Laerm;61365;52.162;4.500;2023-04-15T02:39:41;46.20;41.69;50.76;;
72686;Laerm;61365;52.162;4.500;2023-04-15T02:42:07;46.23;41.90;51.10;;
72686;Laerm;61365;52.162;4.500;2023-04-15T02:44:33;46.30;39.65;51.07;;
72686;Laerm;61365;52.162;4.500;2023-04-15T02:47:01;46.19;40.79;51.40;;
72686;Laerm;61365;52.162;4.500;2023-04-15T02:49:28;46.28;41.62;50.82;;
72686;Laerm;61365;52.162;4.500;2023-04-15T02:51:55;46.33;41.73;51.23;;
72686;Laerm;61365;52.162;4.500;2023-04-15T02:54:23;46.50;41.46;51.37;;
72686;Laerm;61365;52.162;4.500;2023-04-15T02:56:49;46.20;42.20;51.13;;
72686;Laerm;61365;52.162;4.500;2023-04-15T02:59:15;46.33;41.88;51.71;;
72686;Laerm;61365;52.162;4.500;2023-04-15T03:01:41;46.54;40.59;53.66;;
72686;Laerm;61365;52.162;4.500;2023-04-15T03:04:08;46.40;39.12;51.09;;
72686;Laerm;61365;52.162;4.500;2023-04-15T03:06:34;46.25;41.26;50.85;;
72686;Laerm;61365;52.162;4.500;2023-04-15T03:09:00;46.24;40.59;50.87;;
72686;Laerm;61365;52.162;4.500;2023-04-15T03:11:28;46.22;39.84;55.16;;
72686;Laerm;61365;52.162;4.500;2023-04-15T03:13:54;46.44;41.61;51.35;;
72686;Laerm;61365;52.162;4.500;2023-04-15T03:16:20;47.02;43.25;51.03;;
72686;Laerm;61365;52.162;4.500;2023-04-15T03:18:46;46.93;42.61;51.23;;
72686;Laerm;61365;52.162;4.500;2023-04-15T03:21:12;46.91;43.13;51.14;;
72686;Laerm;61365;52.162;4.500;2023-04-15T03:23:38;46.99;43.25;50.89;;
72686;Laerm;61365;52.162;4.500;2023-04-15T03:26:04;46.92;42.53;50.74;;
72686;Laerm;61365;52.162;4.500;2023-04-15T03:28:31;46.97;42.92;51.52;;
72686;Laerm;61365;52.162;4.500;2023-04-15T03:30:58;47.09;42.98;50.88;;
72686;Laerm;61365;52.162;4.500;2023-04-15T03:33:24;47.05;42.84;51.18;;
72686;Laerm;61365;52.162;4.500;2023-04-15T03:35:51;46.80;43.30;50.85;;
72686;Laerm;61365;52.162;4.500;2023-04-15T03:38:17;46.94;43.06;51.19;;
72686;Laerm;61365;52.162;4.500;2023-04-15T03:40:45;46.89;42.09;51.08;;
72686;Laerm;61365;52.162;4.500;2023-04-15T03:43:11;46.52;41.39;51.24;;
72686;Laerm;61365;52.162;4.500;2023-04-15T03:45:37;46.47;41.66;51.16;;
72686;Laerm;61365;52.162;4.500;2023-04-15T03:48:09;46.23;41.22;51.70;;
72686;Laerm;61365;52.162;4.500;2023-04-15T03:50:36;46.20;41.99;50.91;;
72686;Laerm;61365;52.162;4.500;2023-04-15T03:53:03;46.20;40.55;50.59;;
72686;Laerm;61365;52.162;4.500;2023-04-15T03:55:29;46.01;40.93;50.55;;
72686;Laerm;61365;52.162;4.500;2023-04-15T03:57:55;46.09;40.73;50.88;;
72686;Laerm;61365;52.162;4.500;2023-04-15T04:00:21;46.27;41.82;50.98;;
72686;Laerm;61365;52.162;4.500;2023-04-15T04:02:47;46.26;41.16;51.78;;
72686;Laerm;61365;52.162;4.500;2023-04-15T04:05:13;46.27;41.29;50.96;;
72686;Laerm;61365;52.162;4.500;2023-04-15T04:07:39;46.20;41.08;50.80;;
72686;Laerm;61365;52.162;4.500;2023-04-15T04:10:06;46.17;41.59;51.29;;
72686;Laerm;61365;52.162;4.500;2023-04-15T04:12:32;46.24;41.70;51.10;;
72686;Laerm;61365;52.162;4.500;2023-04-15T04:14:58;46.05;41.21;60.85;;
72686;Laerm;61365;52.162;4.500;2023-04-15T04:17:24;46.17;41.52;50.35;;
72686;Laerm;61365;52.162;4.500;2023-04-15T04:19:50;46.15;41.18;50.85;;
72686;Laerm;61365;52.162;4.500;2023-04-15T04:22:17;46.08;40.76;51.23;;
72686;Laerm;61365;52.162;4.500;2023-04-15T04:24:43;46.04;40.67;50.58;;
72686;Laerm;61365;52.162;4.500;2023-04-15T04:27:09;46.06;40.82;51.66;;
72686;Laerm;61365;52.162;4.500;2023-04-15T04:29:35;46.04;40.44;51.63;;
72686;Laerm;61365;52.162;4.500;2023-04-15T04:32:01;46.05;41.16;50.30;;
72686;Laerm;61365;52.162;4.500;2023-04-15T04:34:27;46.17;39.39;53.99;;
72686;Laerm;61365;52.162;4.500;2023-04-15T04:36:54;46.00;41.67;51.01;;
72686;Laerm;61365;52.162;4.500;2023-04-15T04:39:20;46.35;41.04;50.80;;
72686;Laerm;61365;52.162;4.500;2023-04-15T04:41:46;46.43;41.02;53.24;;
72686;Laerm;61365;52.162;4.500;2023-04-15T04:44:12;46.49;40.85;51.40;;
72686;Laerm;61365;52.162;4.500;2023-04-15T04:46:38;46.54;39.12;51.28;;
72686;Laerm;61365;52.162;4.500;2023-04-15T04:49:04;46.42;41.53;52.69;;
72686;Laerm;61365;52.162;4.500;2023-04-15T04:51:31;46.70;42.63;50.67;;
72686;Laerm;61365;52.162;4.500;2023-04-15T04:53:57;46.69;41.45;50.80;;
72686;Laerm;61365;52.162;4.500;2023-04-15T04:56:23;46.74;42.59;50.75;;
72686;Laerm;61365;52.162;4.500;2023-04-15T04:58:49;46.85;42.90;51.19;;
72686;Laerm;61365;52.162;4.500;2023-04-15T05:01:16;46.77;42.10;51.10;;
72686;Laerm;61365;52.162;4.500;2023-04-15T05:03:42;46.73;42.67;51.02;;
72686;Laerm;61365;52.162;4.500;2023-04-15T05:06:08;46.67;42.79;50.79;;
72686;Laerm;61365;52.162;4.500;2023-04-15T05:08:34;46.57;42.82;50.12;;
72686;Laerm;61365;52.162;4.500;2023-04-15T05:11:01;46.54;42.59;51.05;;
72686;Laerm;61365;52.162;4.500;2023-04-15T05:13:28;46.49;43.04;50.24;;
72686;Laerm;61365;52.162;4.500;2023-04-15T05:15:55;46.56;42.59;50.87;;
72686;Laerm;61365;52.162;4.500;2023-04-15T05:18:21;46.65;42.73;50.51;;
72686;Laerm;61365;52.162;4.500;2023-04-15T05:20:47;46.59;42.22;50.07;;
72686;Laerm;61365;52.162;4.500;2023-04-15T05:23:15;46.56;42.28;50.31;;
72686;Laerm;61365;52.162;4.500;2023-04-15T05:25:42;46.62;42.52;50.41;;
72686;Laerm;61365;52.162;4.500;2023-04-15T05:28:08;46.54;41.56;50.64;;
72686;Laerm;61365;52.162;4.500;2023-04-15T05:30:34;46.37;40.56;50.77;;
72686;Laerm;61365;52.162;4.500;2023-04-15T05:33:00;46.36;41.12;50.80;;
72686;Laerm;61365;52.162;4.500;2023-04-15T05:35:26;46.31;40.22;53.68;;
72686;Laerm;61365;52.162;4.500;2023-04-15T05:37:53;46.32;41.47;51.16;;
72686;Laerm;61365;52.162;4.500;2023-04-15T05:40:19;46.27;41.05;50.72;;
72686;Laerm;61365;52.162;4.500;2023-04-15T05:42:45;46.21;40.79;50.70;;
72686;Laerm;61365;52.162;4.500;2023-04-15T05:45:11;46.22;40.58;50.45;;
72686;Laerm;61365;52.162;4.500;2023-04-15T05:47:38;46.14;40.86;50.55;;
72686;Laerm;61365;52.162;4.500;2023-04-15T05:50:04;46.12;36.93;54.50;;
72686;Laerm;61365;52.162;4.500;2023-04-15T05:52:31;46.25;41.51;50.85;;
72686;Laerm;61365;52.162;4.500;2023-04-15T05:54:57;46.00;41.63;52.16;;
72686;Laerm;61365;52.162;4.500;2023-04-15T05:57:23;46.07;41.03;51.11;;
72686;Laerm;61365;52.162;4.500;2023-04-15T05:59:49;46.11;40.32;50.54;;
72686;Laerm;61365;52.162;4.500;2023-04-15T06:02:19;46.12;40.17;50.76;;
72686;Laerm;61365;52.162;4.500;2023-04-15T06:04:45;46.15;41.27;50.48;;
72686;Laerm;61365;52.162;4.500;2023-04-15T06:07:11;46.00;40.86;50.35;;
72686;Laerm;61365;52.162;4.500;2023-04-15T06:09:37;46.03;41.37;50.28;;
72686;Laerm;61365;52.162;4.500;2023-04-15T06:12:03;46.08;41.51;50.51;;
72686;Laerm;61365;52.162;4.500;2023-04-15T06:14:29;46.19;39.95;50.63;;
72686;Laerm;61365;52.162;4.500;2023-04-15T06:16:55;46.22;40.49;54.15;;
72686;Laerm;61365;52.162;4.500;2023-04-15T06:19:21;46.13;41.22;54.27;;
72686;Laerm;61365;52.162;4.500;2023-04-15T06:21:47;46.17;37.80;55.48;;
72686;Laerm;61365;52.162;4.500;2023-04-15T06:24:14;46.02;40.15;50.60;;
72686;Laerm;61365;52.162;4.500;2023-04-15T06:26:40;45.80;41.14;50.31;;
72686;Laerm;61365;52.162;4.500;2023-04-15T06:29:06;45.98;40.34;50.17;;
72686;Laerm;61365;52.162;4.500;2023-04-15T06:31:32;45.89;40.51;50.13;;
72686;Laerm;61365;52.162;4.500;2023-04-15T06:33:58;45.80;40.76;50.13;;
72686;Laerm;61365;52.162;4.500;2023-04-15T06:36:24;45.99;40.87;50.10;;
72686;Laerm;61365;52.162;4.500;2023-04-15T06:38:51;45.85;41.18;49.87;;
72686;Laerm;61365;52.162;4.500;2023-04-15T06:41:17;45.76;40.96;50.46;;
72686;Laerm;61365;52.162;4.500;2023-04-15T06:43:43;46.05;40.29;50.32;;
72686;Laerm;61365;52.162;4.500;2023-04-15T06:46:09;45.89;41.03;50.88;;
72686;Laerm;61365;52.162;4.500;2023-04-15T06:48:36;45.87;40.64;50.03;;
72686;Laerm;61365;52.162;4.500;2023-04-15T06:51:03;45.98;36.85;50.04;;
72686;Laerm;61365;52.162;4.500;2023-04-15T06:53:29;46.06;41.57;50.12;;
72686;Laerm;61365;52.162;4.500;2023-04-15T06:55:55;45.93;41.23;50.41;;
72686;Laerm;61365;52.162;4.500;2023-04-15T06:58:21;46.02;41.28;51.35;;
72686;Laerm;61365;52.162;4.500;2023-04-15T07:00:51;45.90;38.17;54.56;;
72686;Laerm;61365;52.162;4.500;2023-04-15T07:03:17;45.99;41.85;50.22;;
72686;Laerm;61365;52.162;4.500;2023-04-15T07:05:43;45.99;41.73;50.65;;
72686;Laerm;61365;52.162;4.500;2023-04-15T07:08:09;45.94;40.55;50.13;;
72686;Laerm;61365;52.162;4.500;2023-04-15T07:10:35;45.97;40.11;50.74;;
72686;Laerm;61365;52.162;4.500;2023-04-15T07:13:02;46.09;40.74;50.30;;
72686;Laerm;61365;52.162;4.500;2023-04-15T07:15:29;45.85;41.50;49.88;;
72686;Laerm;61365;52.162;4.500;2023-04-15T07:17:55;45.74;40.93;53.90;;
72686;Laerm;61365;52.162;4.500;2023-04-15T07:20:21;45.64;41.29;54.66;;
72686;Laerm;61365;52.162;4.500;2023-04-15T07:22:47;45.77;41.34;50.53;;
72686;Laerm;61365;52.162;4.500;2023-04-15T07:25:13;46.11;40.89;54.23;;
72686;Laerm;61365;52.162;4.500;2023-04-15T07:27:40;46.18;40.87;50.88;;
72686;Laerm;61365;52.162;4.500;2023-04-15T07:30:07;46.18;41.34;50.10;;
72686;Laerm;61365;52.162;4.500;2023-04-15T07:32:34;45.90;41.13;50.29;;
72686;Laerm;61365;52.162;4.500;2023-04-15T07:35:00;45.96;40.36;54.06;;
72686;Laerm;61365;52.162;4.500;2023-04-15T07:37:27;45.90;40.42;49.90;;
72686;Laerm;61365;52.162;4.500;2023-04-15T07:39:53;46.17;41.02;50.76;;
72686;Laerm;61365;52.162;4.500;2023-04-15T07:42:19;46.20;40.60;50.42;;
72686;Laerm;61365;52.162;4.500;2023-04-15T07:44:45;46.14;40.07;51.08;;
72686;Laerm;61365;52.162;4.500;2023-04-15T07:47:11;46.11;40.58;50.87;;
72686;Laerm;61365;52.162;4.500;2023-04-15T07:49:38;46.00;40.96;50.33;;
72686;Laerm;61365;52.162;4.500;2023-04-15T07:52:04;46.06;41.49;50.71;;
72686;Laerm;61365;52.162;4.500;2023-04-15T07:54:30;46.03;40.17;50.07;;
72686;Laerm;61365;52.162;4.500;2023-04-15T07:56:57;46.31;39.28;54.59;;
72686;Laerm;61365;52.162;4.500;2023-04-15T07:59:23;46.29;41.38;50.49;;
72686;Laerm;61365;52.162;4.500;2023-04-15T08:01:49;46.20;40.79;50.85;;
72686;Laerm;61365;52.162;4.500;2023-04-15T08:04:16;46.13;41.54;49.90;;
72686;Laerm;61365;52.162;4.500;2023-04-15T08:06:42;45.96;41.23;50.00;;
72686;Laerm;61365;52.162;4.500;2023-04-15T08:09:08;45.72;41.38;50.02;;
72686;Laerm;61365;52.162;4.500;2023-04-15T08:11:34;45.81;41.10;50.13;;
72686;Laerm;61365;52.162;4.500;2023-04-15T08:14:01;45.99;41.19;50.73;;
72686;Laerm;61365;52.162;4.500;2023-04-15T08:16:27;46.08;41.34;50.29;;
72686;Laerm;61365;52.162;4.500;2023-04-15T08:18:55;46.02;40.82;50.41;;
72686;Laerm;61365;52.162;4.500;2023-04-15T08:21:21;46.02;41.03;50.83;;
72686;Laerm;61365;52.162;4.500;2023-04-15T08:23:50;46.09;41.05;50.47;;
72686;Laerm;61365;52.162;4.500;2023-04-15T08:26:18;51.08;41.81;53.71;;
72686;Laerm;61365;52.162;4.500;2023-04-15T08:28:45;45.97;40.87;50.31;;
72686;Laerm;61365;52.162;4.500;2023-04-15T08:31:13;45.82;38.64;50.16;;
72686;Laerm;61365;52.162;4.500;2023-04-15T08:33:39;45.80;41.19;50.59;;
72686;Laerm;61365;52.162;4.500;2023-04-15T08:36:06;45.99;41.22;50.33;;
72686;Laerm;61365;52.162;4.500;2023-04-15T08:38:32;46.00;41.32;50.37;;
72686;Laerm;61365;52.162;4.500;2023-04-15T08:41:11;46.05;41.02;50.12;;
72686;Laerm;61365;52.162;4.500;2023-04-15T08:43:49;45.97;41.04;50.41;;
72686;Laerm;61365;52.162;4.500;2023-04-15T08:46:17;45.94;41.25;50.03;;
72686;Laerm;61365;52.162;4.500;2023-04-15T08:48:46;45.90;40.94;50.36;;
72686;Laerm;61365;52.162;4.500;2023-04-15T08:51:13;45.73;40.96;50.12;;
72686;Laerm;61365;52.162;4.500;2023-04-15T08:53:42;45.61;40.72;50.20;;
72686;Laerm;61365;52.162;4.500;2023-04-15T08:56:11;45.73;40.77;56.49;;
72686;Laerm;61365;52.162;4.500;2023-04-15T08:58:39;45.86;41.20;50.15;;
72686;Laerm;61365;52.162;4.500;2023-04-15T09:01:05;45.93;40.87;50.30;;
72686;Laerm;61365;52.162;4.500;2023-04-15T09:03:32;45.98;40.59;50.07;;
72686;Laerm;61365;52.162;4.500;2023-04-15T09:05:58;45.94;41.13;50.07;;
72686;Laerm;61365;52.162;4.500;2023-04-15T09:08:24;46.03;40.71;50.67;;
72686;Laerm;61365;52.162;4.500;2023-04-15T09:10:52;45.98;40.02;50.00;;
72686;Laerm;61365;52.162;4.500;2023-04-15T09:13:19;45.81;40.83;49.96;;
72686;Laerm;61365;52.162;4.500;2023-04-15T09:15:45;46.05;41.01;50.39;;
72686;Laerm;61365;52.162;4.500;2023-04-15T09:18:11;46.11;41.69;50.53;;
72686;Laerm;61365;52.162;4.500;2023-04-15T09:20:44;46.13;40.59;64.10;;
72686;Laerm;61365;52.162;4.500;2023-04-15T09:23:12;46.13;41.51;50.82;;
72686;Laerm;61365;52.162;4.500;2023-04-15T09:25:39;45.81;41.09;50.37;;
72686;Laerm;61365;52.162;4.500;2023-04-15T09:28:07;45.81;41.56;49.97;;
72686;Laerm;61365;52.162;4.500;2023-04-15T09:30:33;45.83;41.00;50.00;;
72686;Laerm;61365;52.162;4.500;2023-04-15T09:33:01;45.62;39.32;54.71;;
72686;Laerm;61365;52.162;4.500;2023-04-15T09:35:29;45.96;33.69;65.37;;
72686;Laerm;61365;52.162;4.500;2023-04-15T09:38:04;46.00;41.15;50.09;;
72686;Laerm;61365;52.162;4.500;2023-04-15T09:40:39;45.97;41.65;55.50;;
72686;Laerm;61365;52.162;4.500;2023-04-15T09:43:09;46.11;41.08;50.89;;
72686;Laerm;61365;52.162;4.500;2023-04-15T09:45:38;46.23;41.37;50.59;;
72686;Laerm;61365;52.162;4.500;2023-04-15T09:48:24;46.03;40.21;53.51;;
72686;Laerm;61365;52.162;4.500;2023-04-15T09:50:52;46.06;41.42;54.25;;
72686;Laerm;61365;52.162;4.500;2023-04-15T09:53:23;46.12;41.55;50.27;;
72686;Laerm;61365;52.162;4.500;2023-04-15T09:55:53;46.02;40.70;50.63;;
72686;Laerm;61365;52.162;4.500;2023-04-15T09:58:32;46.06;41.16;50.62;;
72686;Laerm;61365;52.162;4.500;2023-04-15T10:01:02;46.10;40.05;50.79;;
72686;Laerm;61365;52.162;4.500;2023-04-15T10:03:30;47.60;41.52;52.26;;
72686;Laerm;61365;52.162;4.500;2023-04-15T10:05:59;47.96;39.14;52.67;;
72686;Laerm;61365;52.162;4.500;2023-04-15T10:08:31;47.89;40.42;52.04;;
72686;Laerm;61365;52.162;4.500;2023-04-15T10:10:59;47.78;39.20;52.07;;
72686;Laerm;61365;52.162;4.500;2023-04-15T10:13:29;47.59;40.68;51.76;;
72686;Laerm;61365;52.162;4.500;2023-04-15T10:16:00;47.62;40.51;55.63;;
72686;Laerm;61365;52.162;4.500;2023-04-15T10:18:31;47.62;40.93;52.16;;
72686;Laerm;61365;52.162;4.500;2023-04-15T10:20:59;47.82;40.92;55.34;;
72686;Laerm;61365;52.162;4.500;2023-04-15T10:23:26;47.91;41.09;52.02;;
72686;Laerm;61365;52.162;4.500;2023-04-15T10:25:53;47.89;40.28;51.82;;
72686;Laerm;61365;52.162;4.500;2023-04-15T10:28:20;47.91;40.87;52.14;;
72686;Laerm;61365;52.162;4.500;2023-04-15T10:30:49;47.87;41.02;52.21;;
72686;Laerm;61365;52.162;4.500;2023-04-15T10:33:19;47.96;41.38;52.44;;
72686;Laerm;61365;52.162;4.500;2023-04-15T10:35:47;47.89;40.42;51.89;;
72686;Laerm;61365;52.162;4.500;2023-04-15T10:38:43;47.79;40.64;52.60;;
72686;Laerm;61365;52.162;4.500;2023-04-15T10:41:26;47.73;39.74;52.01;;
72686;Laerm;61365;52.162;4.500;2023-04-15T10:44:00;47.87;40.73;53.11;;
72686;Laerm;61365;52.162;4.500;2023-04-15T10:46:34;47.79;39.80;55.53;;
72686;Laerm;61365;52.162;4.500;2023-04-15T10:49:13;48.01;39.84;51.87;;
72686;Laerm;61365;52.162;4.500;2023-04-15T10:51:44;48.05;41.36;51.97;;
72686;Laerm;61365;52.162;4.500;2023-04-15T10:54:31;47.95;40.40;51.78;;
72686;Laerm;61365;52.162;4.500;2023-04-15T11:05:19;47.87;40.77;55.11;;
72686;Laerm;61365;52.162;4.500;2023-04-15T11:07:51;47.80;38.72;53.01;;
72686;Laerm;61365;52.162;4.500;2023-04-15T11:12:56;47.87;41.09;52.09;;
72686;Laerm;61365;52.162;4.500;2023-04-15T11:15:36;47.73;39.85;51.75;;
72686;Laerm;61365;52.162;4.500;2023-04-15T11:18:17;47.84;39.71;51.93;;
72686;Laerm;61365;52.162;4.500;2023-04-15T11:23:32;47.79;38.90;51.58;;
72686;Laerm;61365;52.162;4.500;2023-04-15T11:26:00;47.88;40.17;52.73;;
72686;Laerm;61365;52.162;4.500;2023-04-15T11:28:29;47.90;41.68;52.08;;
72686;Laerm;61365;52.162;4.500;2023-04-15T11:30:56;47.84;40.61;55.72;;
72686;Laerm;61365;52.162;4.500;2023-04-15T11:33:24;47.88;40.27;51.81;;
72686;Laerm;61365;52.162;4.500;2023-04-15T11:35:53;48.00;40.30;52.16;;
72686;Laerm;61365;52.162;4.500;2023-04-15T11:38:20;47.81;39.93;52.85;;
72686;Laerm;61365;52.162;4.500;2023-04-15T11:40:47;47.83;40.39;51.88;;
72686;Laerm;61365;52.162;4.500;2023-04-15T11:43:16;47.93;40.43;51.64;;
72686;Laerm;61365;52.162;4.500;2023-04-15T11:45:58;47.78;40.18;51.92;;
72686;Laerm;61365;52.162;4.500;2023-04-15T11:48:27;47.83;40.11;52.12;;
72686;Laerm;61365;52.162;4.500;2023-04-15T11:50:58;47.69;39.76;52.24;;
72686;Laerm;61365;52.162;4.500;2023-04-15T11:53:44;47.75;41.25;51.97;;
72686;Laerm;61365;52.162;4.500;2023-04-15T11:56:17;47.83;39.84;52.51;;
72686;Laerm;61365;52.162;4.500;2023-04-15T11:58:43;47.73;40.53;51.33;;
72686;Laerm;61365;52.162;4.500;2023-04-15T12:01:11;47.78;39.90;54.81;;
72686;Laerm;61365;52.162;4.500;2023-04-15T12:03:41;47.88;40.93;51.95;;
72686;Laerm;61365;52.162;4.500;2023-04-15T12:06:33;47.98;39.94;52.22;;
72686;Laerm;61365;52.162;4.500;2023-04-15T12:09:12;47.80;40.37;52.37;;
72686;Laerm;61365;52.162;4.500;2023-04-15T12:11:49;47.56;39.28;51.59;;
72686;Laerm;61365;52.162;4.500;2023-04-15T12:14:25;47.65;40.25;51.95;;
72686;Laerm;61365;52.162;4.500;2023-04-15T12:16:56;47.69;40.63;54.71;;
72686;Laerm;61365;52.162;4.500;2023-04-15T12:19:28;47.43;39.92;51.60;;
72686;Laerm;61365;52.162;4.500;2023-04-15T12:22:02;47.60;39.66;51.58;;
72686;Laerm;61365;52.162;4.500;2023-04-15T12:24:33;47.75;40.55;52.00;;
72686;Laerm;61365;52.162;4.500;2023-04-15T12:27:05;47.68;40.49;55.08;;
72686;Laerm;61365;52.162;4.500;2023-04-15T12:29:32;47.66;40.34;52.26;;
72686;Laerm;61365;52.162;4.500;2023-04-15T12:32:10;47.67;40.42;52.02;;
72686;Laerm;61365;52.162;4.500;2023-04-15T12:34:49;47.79;40.14;51.95;;
72686;Laerm;61365;52.162;4.500;2023-04-15T12:37:16;47.74;39.46;51.76;;
72686;Laerm;61365;52.162;4.500;2023-04-15T12:39:44;47.76;41.47;51.99;;
72686;Laerm;61365;52.162;4.500;2023-04-15T12:42:11;47.70;40.52;52.02;;
72686;Laerm;61365;52.162;4.500;2023-04-15T12:44:38;47.76;40.05;54.93;;
72686;Laerm;61365;52.162;4.500;2023-04-15T12:47:06;47.71;40.73;51.97;;
72686;Laerm;61365;52.162;4.500;2023-04-15T12:49:32;47.78;40.58;55.01;;
72686;Laerm;61365;52.162;4.500;2023-04-15T12:52:00;47.60;38.93;51.77;;
72686;Laerm;61365;52.162;4.500;2023-04-15T12:54:27;47.67;40.22;54.71;;
72686;Laerm;61365;52.162;4.500;2023-04-15T12:56:56;47.67;40.25;51.86;;
72686;Laerm;61365;52.162;4.500;2023-04-15T12:59:23;47.63;39.39;51.38;;
72686;Laerm;61365;52.162;4.500;2023-04-15T13:01:50;47.76;40.44;52.00;;
72686;Laerm;61365;52.162;4.500;2023-04-15T13:04:20;47.74;40.28;51.65;;
72686;Laerm;61365;52.162;4.500;2023-04-15T13:06:47;47.78;41.36;54.60;;
72686;Laerm;61365;52.162;4.500;2023-04-15T13:09:13;47.54;40.49;51.89;;
72686;Laerm;61365;52.162;4.500;2023-04-15T13:11:39;47.53;40.11;52.12;;
72686;Laerm;61365;52.162;4.500;2023-04-15T13:14:07;47.56;39.75;54.91;;
72686;Laerm;61365;52.162;4.500;2023-04-15T13:16:34;47.50;40.41;52.10;;
72686;Laerm;61365;52.162;4.500;2023-04-15T13:19:01;47.51;39.49;52.20;;
72686;Laerm;61365;52.162;4.500;2023-04-15T13:21:28;47.48;40.44;51.62;;
72686;Laerm;61365;52.162;4.500;2023-04-15T13:23:54;47.47;40.18;51.72;;
72686;Laerm;61365;52.162;4.500;2023-04-15T13:26:20;47.39;38.56;51.59;;
72686;Laerm;61365;52.162;4.500;2023-04-15T13:28:47;47.22;40.47;51.75;;
72686;Laerm;61365;52.162;4.500;2023-04-15T13:31:13;47.45;40.36;54.45;;
72686;Laerm;61365;52.162;4.500;2023-04-15T13:33:39;47.43;39.85;51.53;;
72686;Laerm;61365;52.162;4.500;2023-04-15T13:36:05;47.63;40.57;51.73;;
72686;Laerm;61365;52.162;4.500;2023-04-15T13:38:31;47.41;38.41;51.59;;
72686;Laerm;61365;52.162;4.500;2023-04-15T13:40:57;47.57;41.09;54.02;;
72686;Laerm;61365;52.162;4.500;2023-04-15T13:43:23;47.53;39.99;52.01;;
72686;Laerm;61365;52.162;4.500;2023-04-15T13:45:50;47.58;39.02;52.00;;
72686;Laerm;61365;52.162;4.500;2023-04-15T13:48:16;47.60;38.44;52.09;;
72686;Laerm;61365;52.162;4.500;2023-04-15T13:50:42;47.55;40.23;51.70;;
72686;Laerm;61365;52.162;4.500;2023-04-15T13:53:11;47.43;38.38;52.08;;
72686;Laerm;61365;52.162;4.500;2023-04-15T13:55:37;47.55;40.24;51.46;;
72686;Laerm;61365;52.162;4.500;2023-04-15T13:58:10;47.46;40.40;51.79;;
72686;Laerm;61365;52.162;4.500;2023-04-15T14:00:36;47.54;40.07;52.17;;
72686;Laerm;61365;52.162;4.500;2023-04-15T14:03:03;47.37;40.01;51.41;;